createdAt,value
2022-12-03T00:02:40.599Z,-2.47
2022-12-03T00:08:02.939Z,-2.46
2022-12-03T00:13:24.769Z,-2.56
2022-12-03T00:18:46.654Z,-2.42
2022-12-03T00:24:08.755Z,-2.67
2022-12-03T00:29:30.523Z,-2.59
2022-12-03T00:34:52.586Z,-2.59
2022-12-03T00:40:14.725Z,-2.40
2022-12-03T00:45:36.506Z,-2.55
2022-12-03T00:50:58.292Z,-2.49
2022-12-03T00:56:20.088Z,-2.58
2022-12-03T01:01:41.937Z,-2.60
2022-12-03T01:07:04.167Z,-2.53
2022-12-03T01:12:25.931Z,-2.54
2022-12-03T01:17:47.713Z,-2.54
2022-12-03T01:23:09.522Z,-2.40
2022-12-03T01:28:31.301Z,-2.38
2022-12-03T01:33:53.098Z,-2.47
2022-12-03T01:39:14.884Z,-2.44
2022-12-03T01:44:39.131Z,-2.42
2022-12-03T01:50:07.016Z,-2.54
2022-12-03T01:55:29.202Z,-2.28
2022-12-03T02:00:51.287Z,-2.40
2022-12-03T02:06:21.442Z,-2.20
2022-12-03T02:11:48.698Z,-2.25
2022-12-03T02:17:11.418Z,-2.23
2022-12-03T02:22:52.205Z,-2.24
2022-12-03T02:28:14.046Z,-2.13
2022-12-03T02:33:36.115Z,-2.20
2022-12-03T02:38:57.936Z,-2.11
2022-12-03T02:44:19.904Z,-2.05
2022-12-03T02:49:42.227Z,-1.95
2022-12-03T02:55:06.726Z,-2.04
2022-12-03T03:00:28.889Z,-2.01
2022-12-03T03:05:51.035Z,-1.88
2022-12-03T03:11:12.916Z,-1.96
2022-12-03T03:16:35.178Z,-2.15
2022-12-03T03:21:57.077Z,-2.03
2022-12-03T03:27:18.932Z,-2.05
2022-12-03T03:32:41.941Z,-2.07
2022-12-03T03:38:04.704Z,-2.00
2022-12-03T03:43:26.836Z,-2.00
2022-12-03T03:48:50.138Z,-2.03
2022-12-03T03:54:12.659Z,-2.27
2022-12-03T03:59:34.690Z,-2.21
2022-12-03T04:04:56.560Z,-2.01
2022-12-03T04:10:19.160Z,-2.13
2022-12-03T04:15:41.050Z,-2.05
2022-12-03T04:21:02.876Z,-2.04
2022-12-03T04:26:24.873Z,-1.97
2022-12-03T04:31:46.700Z,-2.04
2022-12-03T04:37:08.963Z,-2.02
2022-12-03T04:42:30.714Z,-2.04
2022-12-03T04:47:52.501Z,-2.09
2022-12-03T04:53:14.782Z,-1.93
2022-12-03T04:58:36.565Z,-1.93
2022-12-03T05:03:58.436Z,-1.94
2022-12-03T05:09:20.493Z,-1.98
2022-12-03T05:14:42.296Z,-1.97
2022-12-03T05:20:04.497Z,-1.87
2022-12-03T05:25:26.324Z,-1.92
2022-12-03T05:30:48.258Z,-2.08
2022-12-03T05:36:10.105Z,-1.84
2022-12-03T05:41:31.888Z,-1.85
2022-12-03T05:46:53.667Z,-1.98
2022-12-03T05:52:15.431Z,-1.97
2022-12-03T05:57:37.508Z,-1.71
2022-12-03T06:03:00.044Z,-1.91
2022-12-03T06:08:21.958Z,-1.74
2022-12-03T06:13:43.832Z,-1.77
2022-12-03T06:19:05.600Z,-1.82
2022-12-03T06:24:27.578Z,-1.75
2022-12-03T06:29:49.412Z,-1.72
2022-12-03T06:35:11.446Z,-1.73
2022-12-03T06:40:33.290Z,-1.66
2022-12-03T06:45:55.037Z,-1.72
2022-12-03T06:51:16.858Z,-1.71
2022-12-03T06:56:44.886Z,-1.60
2022-12-03T07:02:07.349Z,-1.50
2022-12-03T07:07:29.234Z,-1.43
2022-12-03T07:12:51.033Z,-1.39
2022-12-03T07:18:12.837Z,-1.43
2022-12-03T07:23:34.740Z,-1.34
2022-12-03T07:28:56.523Z,-1.38
2022-12-03T07:34:18.585Z,-1.29
2022-12-03T07:39:40.397Z,-1.30
2022-12-03T07:45:02.308Z,-1.32
2022-12-03T07:50:24.097Z,-1.37
2022-12-03T07:55:46.017Z,-1.24
2022-12-03T08:01:07.932Z,-1.19
2022-12-03T08:06:29.738Z,-1.19
2022-12-03T08:11:52.234Z,-1.27
2022-12-03T08:17:14.722Z,-1.14
2022-12-03T08:22:36.479Z,-1.14
2022-12-03T08:28:17.649Z,-1.39
2022-12-03T08:33:40.391Z,-1.16
2022-12-03T08:39:34.763Z,-1.32
2022-12-03T08:44:58.133Z,-1.21
2022-12-03T08:50:36.033Z,-0.98
2022-12-03T08:55:59.263Z,-0.97
2022-12-03T09:01:26.894Z,-0.91
2022-12-03T09:06:49.551Z,-0.81
2022-12-03T09:12:11.362Z,-0.65
2022-12-03T09:17:33.907Z,-0.45
2022-12-03T09:22:55.842Z,-0.29
2022-12-03T09:28:17.611Z,-0.26
2022-12-03T09:33:39.642Z,-0.02
2022-12-03T09:39:01.490Z,-0.02
2022-12-03T09:44:23.399Z,0.17
2022-12-03T09:49:45.496Z,-0.04
2022-12-03T09:55:15.544Z,0.10
2022-12-03T10:00:37.320Z,-0.32
2022-12-03T10:05:59.160Z,-0.40
2022-12-03T10:11:25.055Z,-0.11
2022-12-03T10:16:47.051Z,0.19
2022-12-03T10:22:09.082Z,0.73
2022-12-03T10:27:31.178Z,0.98
2022-12-03T10:32:52.999Z,1.21
2022-12-03T10:38:17.609Z,0.85
2022-12-03T10:43:39.422Z,0.80
2022-12-03T10:49:17.948Z,0.72
2022-12-03T10:54:39.743Z,0.85
2022-12-03T11:00:01.621Z,0.65
2022-12-03T11:05:27.083Z,0.71
2022-12-03T11:10:57.693Z,0.43
2022-12-03T11:16:41.288Z,0.67
2022-12-03T11:22:06.070Z,0.61
2022-12-03T11:27:27.889Z,0.63
2022-12-03T11:33:01.680Z,0.55
2022-12-03T11:38:38.928Z,0.42
2022-12-03T11:44:22.634Z,0.56
2022-12-03T11:49:47.858Z,0.44
2022-12-03T11:55:24.384Z,0.40
2022-12-03T12:00:54.181Z,0.44
2022-12-03T12:06:21.370Z,0.30
2022-12-03T12:11:43.248Z,0.62
2022-12-03T12:17:28.677Z,0.84
2022-12-03T12:22:51.623Z,0.87
2022-12-03T12:28:13.686Z,0.75
2022-12-03T12:33:35.943Z,0.85
2022-12-03T12:38:59.722Z,0.99
2022-12-03T12:44:22.506Z,0.94
2022-12-03T12:49:47.345Z,0.78
2022-12-03T12:55:13.362Z,0.73
2022-12-03T13:00:35.334Z,0.74
2022-12-03T13:05:57.585Z,1.09
2022-12-03T13:11:25.376Z,0.99
2022-12-03T13:16:48.676Z,1.12
2022-12-03T13:22:18.554Z,1.16
2022-12-03T13:27:40.851Z,1.09
2022-12-03T13:33:12.815Z,1.09
2022-12-03T13:38:34.824Z,1.03
2022-12-03T13:43:56.921Z,0.84
2022-12-03T13:49:21.571Z,0.84
2022-12-03T13:54:43.527Z,0.67
2022-12-03T14:00:06.194Z,0.84
2022-12-03T14:05:27.967Z,0.92
2022-12-03T14:10:50.169Z,0.89
2022-12-03T14:16:14.043Z,0.79
2022-12-03T14:21:35.989Z,0.90
2022-12-03T14:26:57.790Z,1.04
2022-12-03T14:32:19.779Z,0.86
2022-12-03T14:37:41.555Z,0.85
2022-12-03T14:43:03.377Z,0.89
2022-12-03T14:48:25.152Z,1.19
2022-12-03T14:53:47.241Z,0.87
2022-12-03T14:59:09.022Z,1.01
2022-12-03T15:04:46.240Z,0.84
2022-12-03T15:10:08.513Z,0.89
2022-12-03T15:15:30.441Z,0.84
2022-12-03T15:20:52.315Z,0.89
2022-12-03T15:26:14.103Z,0.84
2022-12-03T15:31:35.971Z,0.89
2022-12-03T15:36:57.780Z,0.72
2022-12-03T15:42:19.799Z,0.96
2022-12-03T15:47:42.030Z,0.88
2022-12-03T15:53:03.834Z,0.79
2022-12-03T15:58:25.617Z,0.95
2022-12-03T16:03:47.674Z,0.97
2022-12-03T16:09:09.445Z,0.98
2022-12-03T16:14:31.403Z,1.02
2022-12-03T16:19:53.410Z,1.11
2022-12-03T16:25:15.499Z,1.11
2022-12-03T16:30:37.496Z,1.03
2022-12-03T16:35:59.333Z,1.01
2022-12-03T16:41:21.381Z,0.89
2022-12-03T16:46:43.291Z,0.86
2022-12-03T16:52:05.221Z,1.05
2022-12-03T16:57:33.194Z,1.14
2022-12-03T17:02:55.638Z,1.09
2022-12-03T17:08:17.553Z,1.04
2022-12-03T17:13:39.365Z,1.05
2022-12-03T17:19:01.110Z,0.85
2022-12-03T17:24:22.927Z,0.88
2022-12-03T17:29:44.715Z,0.96
2022-12-03T17:35:06.960Z,1.12
2022-12-03T17:40:28.809Z,1.19
2022-12-03T17:45:50.624Z,1.20
2022-12-03T17:51:12.408Z,1.10
2022-12-03T17:56:34.179Z,1.24
2022-12-03T18:01:56.045Z,1.09
2022-12-03T18:07:17.886Z,1.14
2022-12-03T18:12:39.669Z,1.11
2022-12-03T18:18:01.466Z,1.16
2022-12-03T18:23:23.270Z,1.22
2022-12-03T18:28:45.046Z,1.14
2022-12-03T18:34:06.873Z,0.98
2022-12-03T18:39:38.304Z,1.12
2022-12-03T18:45:01.073Z,0.96
2022-12-03T18:50:22.935Z,1.07
2022-12-03T18:55:47.276Z,0.89
2022-12-03T19:01:16.740Z,0.89
2022-12-03T19:06:38.714Z,0.83
2022-12-03T19:12:00.837Z,0.87
2022-12-03T19:17:22.679Z,1.02
2022-12-03T19:22:44.945Z,1.09
2022-12-03T19:28:06.904Z,0.99
2022-12-03T19:33:29.904Z,1.08
2022-12-03T19:38:57.237Z,1.02
2022-12-03T19:44:19.541Z,1.17
2022-12-03T19:49:41.432Z,1.16
2022-12-03T19:55:03.704Z,1.14
2022-12-03T20:00:25.463Z,1.11
2022-12-03T20:05:47.498Z,1.27
2022-12-03T20:11:21.660Z,1.28
2022-12-03T20:16:45.099Z,1.21
2022-12-03T20:22:07.312Z,1.02
2022-12-03T20:27:29.713Z,1.28
2022-12-03T20:32:52.053Z,1.37
2022-12-03T20:38:13.877Z,1.23
2022-12-03T20:43:35.898Z,1.17
2022-12-03T20:48:58.647Z,1.18
2022-12-03T20:54:23.963Z,1.21
2022-12-03T20:59:45.833Z,1.08
2022-12-03T21:05:08.104Z,1.39
2022-12-03T21:10:29.943Z,1.27
2022-12-03T21:16:02.978Z,1.17
2022-12-03T21:21:24.838Z,1.16
2022-12-03T21:26:46.825Z,1.11
2022-12-03T21:32:08.642Z,1.34
2022-12-03T21:37:30.507Z,1.31
2022-12-03T21:42:52.508Z,1.25
2022-12-03T21:48:15.259Z,1.22
2022-12-03T21:53:43.269Z,1.19
2022-12-03T21:59:05.439Z,0.97
2022-12-03T22:04:27.264Z,1.18
2022-12-03T22:09:49.067Z,1.12
2022-12-03T22:15:18.131Z,1.20
2022-12-03T22:20:42.288Z,1.31
2022-12-03T22:26:06.403Z,1.26
2022-12-03T22:31:28.302Z,1.02
2022-12-03T22:36:50.215Z,1.10
2022-12-03T22:42:12.104Z,1.02
2022-12-03T22:47:33.921Z,1.15
2022-12-03T22:52:55.738Z,0.91
2022-12-03T22:58:17.560Z,1.05
2022-12-03T23:03:39.445Z,1.11
2022-12-03T23:09:01.924Z,0.92
2022-12-03T23:14:23.783Z,0.96
2022-12-03T23:19:45.612Z,0.92
2022-12-03T23:25:08.179Z,0.81
2022-12-03T23:30:30.111Z,0.82
2022-12-03T23:35:52.004Z,1.01
2022-12-03T23:41:17.102Z,0.90
2022-12-03T23:46:39.622Z,1.04
2022-12-03T23:52:01.546Z,0.63
2022-12-03T23:57:23.514Z,0.52
